Startpagina
METAR-TAF:

METAR-TAF

Vliegvelden :

Louis Armstrong New Orleans International Airport

New Orleans, Louisiana, Verenigde Staten

breedte: 29-59-34N, lengte: 090-15-03W, hoogte: 1 m

Actueel weer

Dit bericht is 59 minuten geleden gemaakt, om 09:53 UTC
Wind 6 kt uit het oostnoordoosten
Temperatuur 17°C
Vochtigheid 63%
Druk 1021 hPa
Zicht: 16.1 km
Gebroken wolken op 22000 ft

METAR: KMSY 220953Z 06006KT 10SM BKN220 17/10 A3014 RMK AO2 SLP209 T01670100

Tijdstip: 05:52 (10:52 UTC)

Verwachting

Dit bericht is 5 uur en het 32 minuten geleden gemaakt, om 05:20 UTC
Verwachting geldig van 22 om 06 UTC tot 23 om 12 UTC
Wind 12 kt uit het oostnoordoosten
Zicht: 10 km
Gebroken wolken op 25000 ft
Van 22 om 1500 UTC
Wind 7 kt uit het noordoosten
Zicht: 10 km
Gebroken wolken op 11000 ft
Gebroken wolken op 25000 ft
Kans 30%
van 23 om 06 UTC tot 23 om 12 UTC
Zicht: 6.4 km
Geheel bewolkt op 2500 ft
lichte regenbuien

TAF: KMSY 220520Z 2206/2312 07012KT P6SM BKN250 FM221500 05007KT P6SM BKN110 BKN250 PROB30 2306/2312 4SM -SHRA OVC025

Waarnemingen en weersverwachtingen van meer dan 4000 vliegvelden (METAR en TAF).

De beschikbare stations zijn de gele en rode punten op de kaart.

Ga met uw muis naar het station om de naam te zien.

Klik dan om waarnemingen en weersverwachtingen te zien.

kaart wijzigen: klik op de groene knoppen met een zwart kruis om in te zoomen, op de groene knop met een streepje om uit te zoomen of op de groene pijlen voor aangrenzende kaarten.


METAR-TAF: